Time,TemperatureF,DewpointF,PressureIn,WindDirection,WindDirectionDegrees,WindSpeedMPH,WindSpeedGustMPH,Humidity,HourlyPrecipIn,Conditions,Clouds,dailyrainin,SoftwareType,DateUTC
2013-07-23 00:57:00,69.4,62.3,29.03,NE,45,0.0,0.0,78,0.00,,,0.00,WUHU21623XXSP,2013-07-23 05:57:00,
2013-07-23 01:57:00,68.4,62.1,29.05,NE,45,0.0,0.0,80,0.00,,,0.00,WUHU21623XXSP,2013-07-23 06:57:00,
2013-07-23 02:57:00,67.3,61.3,29.04,North,0,0.0,0.0,81,0.00,,,0.00,WUHU21623XXSP,2013-07-23 07:57:00,
2013-07-23 03:57:00,66.9,61.3,29.04,SSW,203,0.0,0.0,82,0.00,,,0.00,WUHU21623XXSP,2013-07-23 08:57:00,
2013-07-23 04:57:00,66.6,61.0,29.05,SW,225,0.0,0.0,82,0.00,,,0.00,WUHU21623XXSP,2013-07-23 09:57:00,
2013-07-23 06:01:00,66.6,61.3,29.04,SW,225,0.0,0.0,83,0.00,,,0.00,WUHU21623XXSP,2013-07-23 11:01:00,
2013-07-23 06:06:00,66.6,61.2,29.04,SW,225,0.0,0.0,83,0.00,,,0.00,WUHU21623XXSP,2013-07-23 11:06:00,
2013-07-23 06:11:00,66.6,61.2,29.04,NE,45,0.0,0.0,83,0.00,,,0.00,WUHU21623XXSP,2013-07-23 11:11:00,
2013-07-23 06:16:00,66.7,61.4,29.04,NE,45,0.0,0.0,83,0.00,,,0.00,WUHU21623XXSP,2013-07-23 11:16:00,
2013-07-23 06:21:00,66.7,61.4,29.04,NE,45,0.0,0.0,83,0.00,,,0.00,WUHU21623XXSP,2013-07-23 11:21:00,
2013-07-23 06:26:00,66.7,61.4,29.05,NE,45,0.0,0.0,83,0.00,,,0.00,WUHU21623XXSP,2013-07-23 11:26:00,
2013-07-23 06:31:00,66.9,61.6,29.05,NE,45,0.0,0.0,83,0.00,,,0.00,WUHU21623XXSP,2013-07-23 11:31:00,
2013-07-23 06:36:00,66.9,61.6,29.05,NE,45,0.0,0.0,83,0.00,,,0.00,WUHU21623XXSP,2013-07-23 11:36:00,
2013-07-23 06:41:00,67.3,62.0,29.05,NE,45,2.5,2.5,83,0.00,,,0.00,WUHU21623XXSP,2013-07-23 11:41:00,
2013-07-23 06:46:00,67.3,62.0,29.05,NE,45,0.0,2.5,83,0.00,,,0.00,WUHU21623XXSP,2013-07-23 11:46:00,
2013-07-23 06:51:00,67.6,62.6,29.05,WSW,247,0.0,0.0,84,0.00,,,0.00,WUHU21623XXSP,2013-07-23 11:51:00,
2013-07-23 06:56:00,67.8,62.8,29.06,NNE,22,0.0,1.8,84,0.00,,,0.00,WUHU21623XXSP,2013-07-23 11:56:00,
2013-07-23 07:01:00,68.0,63.0,29.06,NE,45,1.3,3.4,84,0.00,,,0.00,WUHU21623XXSP,2013-07-23 12:01:00,
2013-07-23 07:06:00,68.2,63.2,29.06,NNE,22,0.0,3.4,84,0.00,,,0.00,WUHU21623XXSP,2013-07-23 12:06:00,
2013-07-23 07:11:00,68.5,63.2,29.07,North,0,4.7,4.7,83,0.00,,,0.00,WUHU21623XXSP,2013-07-23 12:11:00,
2013-07-23 07:16:00,68.5,63.2,29.07,NNE,22,0.0,4.7,83,0.00,,,0.00,WUHU21623XXSP,2013-07-23 12:16:00,
2013-07-23 07:21:00,68.5,63.2,29.07,NE,45,0.0,0.0,83,0.00,,,0.00,WUHU21623XXSP,2013-07-23 12:21:00,
2013-07-23 07:26:00,68.7,63.3,29.07,NE,45,0.0,0.9,83,0.00,,,0.00,WUHU21623XXSP,2013-07-23 12:26:00,
2013-07-23 07:31:00,68.7,63.3,29.07,NNE,22,0.0,0.9,83,0.00,,,0.00,WUHU21623XXSP,2013-07-23 12:31:00,
2013-07-23 07:36:00,68.9,63.5,29.08,NNE,22,0.0,0.0,83,0.00,,,0.00,WUHU21623XXSP,2013-07-23 12:36:00,
2013-07-23 07:41:00,69.3,63.8,29.08,NE,45,0.0,0.0,83,0.00,,,0.00,WUHU21623XXSP,2013-07-23 12:41:00,
2013-07-23 07:46:00,69.4,64.0,29.08,NNE,22,0.0,0.0,83,0.00,,,0.00,WUHU21623XXSP,2013-07-23 12:46:00,
2013-07-23 07:51:00,69.4,64.0,29.08,NNE,22,0.0,0.0,83,0.00,,,0.00,WUHU21623XXSP,2013-07-23 12:51:00,
2013-07-23 07:56:00,69.8,64.3,29.09,NE,45,0.0,0.0,83,0.00,,,0.00,WUHU21623XXSP,2013-07-23 12:56:00,
2013-07-23 08:01:00,69.8,64.0,29.09,NE,45,0.0,2.5,82,0.00,,,0.00,WUHU21623XXSP,2013-07-23 13:01:00,
2013-07-23 08:06:00,69.8,64.0,29.09,NNE,22,0.4,2.5,82,0.00,,,0.00,WUHU21623XXSP,2013-07-23 13:06:00,
2013-07-23 08:11:00,70.0,64.2,29.09,NNE,22,2.5,4.7,82,0.00,,,0.00,WUHU21623XXSP,2013-07-23 13:11:00,
2013-07-23 08:16:00,70.3,64.5,29.09,NNW,337,0.0,4.7,82,0.00,,,0.00,WUHU21623XXSP,2013-07-23 13:16:00,
2013-07-23 08:21:00,70.3,64.5,29.09,NNE,22,2.0,2.0,82,0.00,,,0.00,WUHU21623XXSP,2013-07-23 13:21:00,
2013-07-23 08:26:00,70.5,64.7,29.09,North,0,0.0,2.0,82,0.00,,,0.00,WUHU21623XXSP,2013-07-23 13:26:00,
2013-07-23 08:31:00,70.9,64.7,29.09,NE,45,1.3,3.8,81,0.00,,,0.00,WUHU21623XXSP,2013-07-23 13:31:00,
2013-07-23 08:36:00,71.2,64.7,29.09,NE,45,1.3,3.8,81,0.00,,,0.00,WUHU21623XXSP,2013-07-23 13:36:00,
2013-07-23 08:41:00,71.4,64.9,29.08,NNE,22,4.5,4.5,79,0.00,,,0.00,WUHU21623XXSP,2013-07-23 13:41:00,
2013-07-23 08:46:00,71.8,64.9,29.08,North,0,4.9,4.9,79,0.00,,,0.00,WUHU21623XXSP,2013-07-23 13:46:00,
2013-07-23 08:51:00,72.0,64.9,29.09,North,0,5.4,5.4,78,0.00,,,0.00,WUHU21623XXSP,2013-07-23 13:51:00,
2013-07-23 08:56:00,72.1,64.5,29.09,North,0,5.4,5.4,77,0.00,,,0.00,WUHU21623XXSP,2013-07-23 13:56:00,
2013-07-23 09:01:00,72.3,64.3,29.09,NE,45,4.7,5.4,76,0.00,,,0.00,WUHU21623XXSP,2013-07-23 14:01:00,
2013-07-23 09:06:00,72.3,64.0,29.10,NNE,22,4.5,6.0,75,0.00,,,0.00,WUHU21623XXSP,2013-07-23 14:06:00,
2013-07-23 09:11:00,72.7,64.3,29.10,North,0,7.2,7.2,75,0.00,,,0.00,WUHU21623XXSP,2013-07-23 14:11:00,
2013-07-23 09:16:00,72.9,64.5,29.10,NE,45,0.2,7.2,75,0.00,,,0.00,WUHU21623XXSP,2013-07-23 14:16:00,
2013-07-23 09:21:00,73.2,64.5,29.10,North,0,4.3,4.9,74,0.00,,,0.00,WUHU21623XXSP,2013-07-23 14:21:00,
2013-07-23 09:26:00,73.6,64.8,29.11,NNE,22,3.8,4.9,74,0.00,,,0.00,WUHU21623XXSP,2013-07-23 14:26:00,
2013-07-23 09:31:00,73.8,64.6,29.11,North,0,3.6,4.7,73,0.00,,,0.00,WUHU21623XXSP,2013-07-23 14:31:00,
2013-07-23 09:36:00,73.9,64.8,29.11,NNE,22,0.0,3.8,73,0.00,,,0.00,WUHU21623XXSP,2013-07-23 14:36:00,
2013-07-23 09:41:00,74.1,64.5,29.11,North,0,2.9,3.6,72,0.00,,,0.00,WUHU21623XXSP,2013-07-23 14:41:00,
2013-07-23 09:46:00,74.1,64.2,29.12,NNE,22,1.8,2.9,71,0.00,,,0.00,WUHU21623XXSP,2013-07-23 14:46:00,
2013-07-23 09:51:00,74.1,64.0,29.12,NNE,22,2.5,2.5,71,0.00,,,0.00,WUHU21623XXSP,2013-07-23 14:51:00,
2013-07-23 09:56:00,74.5,64.5,29.12,NNE,22,0.0,3.8,71,0.00,,,0.00,WUHU21623XXSP,2013-07-23 14:56:00,
2013-07-23 10:01:00,74.7,64.7,29.12,NNE,22,0.4,3.8,71,0.00,,,0.00,WUHU21623XXSP,2013-07-23 15:01:00,
2013-07-23 10:06:00,74.8,64.4,29.12,NNE,22,0.0,3.8,70,0.00,,,0.00,WUHU21623XXSP,2013-07-23 15:06:00,
2013-07-23 10:11:00,75.2,64.8,29.12,NNE,22,4.0,4.0,70,0.00,,,0.00,WUHU21623XXSP,2013-07-23 15:11:00,
2013-07-23 10:16:00,75.6,64.7,29.12,North,0,0.0,5.4,69,0.00,,,0.00,WUHU21623XXSP,2013-07-23 15:16:00,
2013-07-23 10:21:00,75.7,64.8,29.12,NNE,22,4.3,5.4,69,0.00,,,0.00,WUHU21623XXSP,2013-07-23 15:21:00,
2013-07-23 10:26:00,75.9,64.6,29.12,NNE,22,5.1,5.1,68,0.00,,,0.00,WUHU21623XXSP,2013-07-23 15:26:00,
2013-07-23 10:31:00,75.9,64.6,29.12,NNE,22,5.4,5.4,68,0.00,,,0.00,WUHU21623XXSP,2013-07-23 15:31:00,
2013-07-23 10:36:00,76.1,64.8,29.12,NNE,22,0.0,6.5,68,0.00,,,0.00,WUHU21623XXSP,2013-07-23 15:36:00,
2013-07-23 10:41:00,76.3,64.5,29.12,North,0,4.5,6.5,67,0.00,,,0.00,WUHU21623XXSP,2013-07-23 15:41:00,
2013-07-23 10:46:00,76.3,64.5,29.12,NNE,22,0.0,4.5,67,0.00,,,0.00,WUHU21623XXSP,2013-07-23 15:46:00,
2013-07-23 10:51:00,76.3,64.5,29.12,NNE,22,2.7,2.7,67,0.00,,,0.00,WUHU21623XXSP,2013-07-23 15:51:00,
2013-07-23 10:56:00,76.6,64.8,29.12,NNE,22,0.0,5.6,67,0.00,,,0.00,WUHU21623XXSP,2013-07-23 15:56:00,
2013-07-23 11:01:00,76.6,64.7,29.12,North,0,2.7,5.6,67,0.00,,,0.00,WUHU21623XXSP,2013-07-23 16:01:00,
2013-07-23 11:06:00,76.6,64.4,29.13,North,0,1.8,2.7,66,0.00,,,0.00,WUHU21623XXSP,2013-07-23 16:06:00,
2013-07-23 11:11:00,76.6,64.0,29.13,NNE,22,0.0,1.8,65,0.00,,,0.00,WUHU21623XXSP,2013-07-23 16:11:00,
2013-07-23 11:16:00,76.8,64.4,29.13,NNE,22,0.0,0.0,66,0.00,,,0.00,WUHU21623XXSP,2013-07-23 16:16:00,
2013-07-23 11:21:00,77.0,64.1,29.13,WSW,247,2.0,2.0,65,0.00,,,0.00,WUHU21623XXSP,2013-07-23 16:21:00,
2013-07-23 11:26:00,77.5,64.2,29.13,WSW,247,2.0,2.0,64,0.00,,,0.00,WUHU21623XXSP,2013-07-23 16:26:00,
2013-07-23 11:31:00,77.5,63.9,29.12,North,0,0.9,4.3,63,0.00,,,0.00,WUHU21623XXSP,2013-07-23 16:31:00,
2013-07-23 11:36:00,77.7,64.5,29.13,North,0,2.5,4.3,63,0.00,,,0.00,WUHU21623XXSP,2013-07-23 16:36:00,
2013-07-23 11:41:00,77.5,63.9,29.12,NNE,22,0.0,2.5,64,0.00,,,0.00,WUHU21623XXSP,2013-07-23 16:41:00,
2013-07-23 11:46:00,77.5,63.5,29.13,NNE,22,3.1,3.1,62,0.00,,,0.00,WUHU21623XXSP,2013-07-23 16:46:00,
2013-07-23 11:51:00,77.5,63.5,29.13,NNE,22,3.1,3.1,62,0.00,,,0.00,WUHU21623XXSP,2013-07-23 16:51:00,
2013-07-23 11:56:00,77.5,63.5,29.14,NNE,22,7.4,7.4,62,0.00,,,0.00,WUHU21623XXSP,2013-07-23 16:56:00,
2013-07-23 12:01:00,77.5,63.5,29.13,NNE,22,0.7,7.4,62,0.00,,,0.00,WUHU21623XXSP,2013-07-23 17:01:00,
2013-07-23 12:06:00,77.5,63.5,29.14,North,0,0.0,7.4,62,0.00,,,0.00,WUHU21623XXSP,2013-07-23 17:06:00,
2013-07-23 12:11:00,77.7,63.7,29.14,NNW,337,5.4,6.0,62,0.00,,,0.00,WUHU21623XXSP,2013-07-23 17:11:00,
2013-07-23 12:16:00,77.9,63.7,29.14,NNE,22,5.8,6.0,61,0.00,,,0.00,WUHU21623XXSP,2013-07-23 17:16:00,
2013-07-23 12:21:00,77.7,63.2,29.14,NNW,337,0.0,5.8,61,0.00,,,0.00,WUHU21623XXSP,2013-07-23 17:21:00,
2013-07-23 12:26:00,77.9,63.8,29.14,North,0,0.9,4.7,62,0.00,,,0.00,WUHU21623XXSP,2013-07-23 17:26:00,
2013-07-23 12:31:00,77.9,63.4,29.15,NNE,22,3.4,3.8,61,0.00,,,0.00,WUHU21623XXSP,2013-07-23 17:31:00,
2013-07-23 12:36:00,77.9,63.4,29.14,NNE,22,0.0,3.8,61,0.00,,,0.00,WUHU21623XXSP,2013-07-23 17:36:00,
2013-07-23 12:41:00,77.7,63.8,29.14,NNE,22,4.9,4.9,62,0.00,,,0.00,WUHU21623XXSP,2013-07-23 17:41:00,
2013-07-23 12:46:00,78.1,63.6,29.14,NNE,22,8.1,8.1,61,0.00,,,0.00,WUHU21623XXSP,2013-07-23 17:46:00,
2013-07-23 12:51:00,77.9,62.4,29.14,North,0,3.6,8.1,59,0.00,,,0.00,WUHU21623XXSP,2013-07-23 17:51:00,
2013-07-23 12:56:00,77.9,62.4,29.14,NE,45,2.9,5.1,59,0.00,,,0.00,WUHU21623XXSP,2013-07-23 17:56:00,
2013-07-23 13:01:00,77.7,62.8,29.14,North,0,2.0,6.9,60,0.00,,,0.00,WUHU21623XXSP,2013-07-23 18:01:00,
2013-07-23 13:07:00,77.5,62.1,29.14,North,0,7.6,7.6,59,0.00,,,0.00,WUHU21623XXSP,2013-07-23 18:07:00,
2013-07-23 13:12:00,77.5,62.1,29.15,NE,45,0.0,7.6,59,0.00,,,0.00,WUHU21623XXSP,2013-07-23 18:12:00,
2013-07-23 13:17:00,77.5,62.1,29.14,NNE,22,5.1,5.6,59,0.00,,,0.00,WUHU21623XXSP,2013-07-23 18:17:00,
2013-07-23 13:23:00,77.4,61.9,29.15,NNE,22,4.5,5.1,59,0.00,,,0.00,WUHU21623XXSP,2013-07-23 18:23:00,
2013-07-23 13:28:00,77.0,61.6,29.14,NE,45,0.0,6.3,59,0.00,,,0.00,WUHU21623XXSP,2013-07-23 18:28:00,
2013-07-23 13:33:00,76.5,61.6,29.14,NNE,22,1.8,6.3,60,0.00,,,0.00,WUHU21623XXSP,2013-07-23 18:33:00,
2013-07-23 13:38:00,76.1,60.7,29.15,NNE,22,1.8,1.8,59,0.00,,,0.00,WUHU21623XXSP,2013-07-23 18:38:00,
2013-07-23 13:43:00,75.9,60.6,29.15,North,0,0.4,1.8,59,0.00,,,0.00,WUHU21623XXSP,2013-07-23 18:43:00,
2013-07-23 13:48:00,75.7,60.4,29.15,NW,315,0.0,4.0,59,0.00,,,0.00,WUHU21623XXSP,2013-07-23 18:48:00,
2013-07-23 13:53:00,75.7,60.4,29.15,NNE,22,1.1,4.0,59,0.00,,,0.00,WUHU21623XXSP,2013-07-23 18:53:00,
2013-07-23 13:58:00,75.6,60.8,29.15,NNE,22,2.2,2.2,60,0.00,,,0.00,WUHU21623XXSP,2013-07-23 18:58:00,
2013-07-23 14:03:00,75.6,61.2,29.14,NNE,22,6.0,6.0,61,0.00,,,0.00,WUHU21623XXSP,2013-07-23 19:03:00,
2013-07-23 14:08:00,75.7,61.4,29.15,North,0,0.0,6.0,61,0.00,,,0.00,WUHU21623XXSP,2013-07-23 19:08:00,
2013-07-23 14:13:00,75.7,61.8,29.14,NNE,22,0.7,4.0,62,0.00,,,0.00,WUHU21623XXSP,2013-07-23 19:13:00,
2013-07-23 14:18:00,75.9,61.5,29.14,North,0,3.6,4.0,61,0.00,,,0.00,WUHU21623XXSP,2013-07-23 19:18:00,
2013-07-23 14:24:00,75.6,61.2,29.14,North,0,5.8,5.8,61,0.00,,,0.00,WUHU21623XXSP,2013-07-23 19:24:00,
2013-07-23 14:29:00,75.4,61.0,29.13,NNE,22,4.9,5.8,61,0.00,,,0.00,WUHU21623XXSP,2013-07-23 19:29:00,
2013-07-23 14:34:00,75.0,60.7,29.13,North,0,2.9,4.9,61,0.00,,,0.00,WUHU21623XXSP,2013-07-23 19:34:00,
2013-07-23 14:39:00,74.8,60.5,29.14,North,0,0.0,6.0,61,0.00,,,0.00,WUHU21623XXSP,2013-07-23 19:39:00,
2013-07-23 14:44:00,74.5,60.2,29.14,NNE,22,7.4,7.4,61,0.00,,,0.00,WUHU21623XXSP,2013-07-23 19:44:00,
2013-07-23 14:49:00,74.5,60.6,29.14,NNE,22,2.2,7.4,62,0.00,,,0.00,WUHU21623XXSP,2013-07-23 19:49:00,
2013-07-23 14:54:00,74.7,61.2,29.14,NNE,22,4.0,4.0,63,0.00,,,0.00,WUHU21623XXSP,2013-07-23 19:54:00,
2013-07-23 14:59:00,74.8,60.9,29.14,NNE,22,0.0,4.0,62,0.00,,,0.00,WUHU21623XXSP,2013-07-23 19:59:00,
2013-07-23 15:04:00,75.0,60.7,29.14,North,0,4.5,4.9,61,0.00,,,0.00,WUHU21623XXSP,2013-07-23 20:04:00,
2013-07-23 15:10:00,75.4,60.6,29.14,North,0,6.7,8.3,60,0.00,,,0.00,WUHU21623XXSP,2013-07-23 20:10:00,
2013-07-23 15:15:00,75.4,60.6,29.13,North,0,2.7,8.3,59,0.00,,,0.00,WUHU21623XXSP,2013-07-23 20:15:00,
2013-07-23 15:20:00,75.4,60.6,29.13,North,0,7.2,7.2,60,0.00,,,0.00,WUHU21623XXSP,2013-07-23 20:20:00,
2013-07-23 15:25:00,75.7,60.3,29.13,North,0,7.2,7.2,58,0.00,,,0.00,WUHU21623XXSP,2013-07-23 20:25:00,
2013-07-23 15:30:00,75.9,59.6,29.13,NNE,22,6.9,7.2,57,0.00,,,0.00,WUHU21623XXSP,2013-07-23 20:30:00,
2013-07-23 15:36:00,76.1,60.2,29.13,NNE,22,6.7,6.9,58,0.00,,,0.00,WUHU21623XXSP,2013-07-23 20:36:00,
2013-07-23 15:41:00,76.6,60.6,29.13,NNW,337,4.7,6.9,58,0.00,,,0.00,WUHU21623XXSP,2013-07-23 20:41:00,
2013-07-23 15:46:00,76.8,60.9,29.13,North,0,4.3,6.7,57,0.00,,,0.00,WUHU21623XXSP,2013-07-23 20:46:00,
2013-07-23 15:51:00,76.8,60.4,29.12,North,0,4.3,4.3,57,0.00,,,0.00,WUHU21623XXSP,2013-07-23 20:51:00,
2013-07-23 15:56:00,76.8,59.9,29.13,North,0,1.8,4.3,56,0.00,,,0.00,WUHU21623XXSP,2013-07-23 20:56:00,
2013-07-23 16:01:00,76.8,59.9,29.13,North,0,4.9,4.9,56,0.00,,,0.00,WUHU21623XXSP,2013-07-23 21:01:00,
2013-07-23 16:06:00,76.6,59.7,29.13,North,0,0.0,7.2,56,0.00,,,0.00,WUHU21623XXSP,2013-07-23 21:06:00,
2013-07-23 16:11:00,76.6,60.2,29.13,NNE,22,5.4,7.2,57,0.00,,,0.00,WUHU21623XXSP,2013-07-23 21:11:00,
2013-07-23 16:17:00,76.8,60.2,29.12,NNE,22,5.4,5.4,57,0.00,,,0.00,WUHU21623XXSP,2013-07-23 21:17:00,
2013-07-23 16:22:00,77.5,60.5,29.13,NNE,22,0.9,7.2,56,0.00,,,0.00,WUHU21623XXSP,2013-07-23 21:22:00,
2013-07-23 16:27:00,77.7,60.7,29.12,NNW,337,2.9,7.2,56,0.00,,,0.00,WUHU21623XXSP,2013-07-23 21:27:00,
2013-07-23 16:32:00,77.7,60.2,29.12,NNE,22,5.8,6.9,55,0.00,,,0.00,WUHU21623XXSP,2013-07-23 21:32:00,
2013-07-23 16:37:00,77.7,59.7,29.13,NNE,22,5.8,6.9,54,0.00,,,0.00,WUHU21623XXSP,2013-07-23 21:37:00,
2013-07-23 16:42:00,77.5,60.0,29.13,NNE,22,3.6,5.8,55,0.00,,,0.00,WUHU21623XXSP,2013-07-23 21:42:00,
2013-07-23 16:48:00,77.2,59.7,29.13,NNE,22,0.0,3.6,55,0.00,,,0.00,WUHU21623XXSP,2013-07-23 21:48:00,
2013-07-23 16:53:00,76.8,59.4,29.12,NNE,22,6.3,6.3,55,0.00,,,0.00,WUHU21623XXSP,2013-07-23 21:53:00,
2013-07-23 16:58:00,76.8,59.9,29.12,North,0,2.7,6.3,56,0.00,,,0.00,WUHU21623XXSP,2013-07-23 21:58:00,
2013-07-23 17:03:00,76.8,59.9,29.12,North,0,2.7,3.6,56,0.00,,,0.00,WUHU21623XXSP,2013-07-23 22:03:00,
2013-07-23 17:09:00,76.5,59.6,29.13,North,0,1.6,2.7,56,0.00,,,0.00,WUHU21623XXSP,2013-07-23 22:09:00,
2013-07-23 17:14:00,76.3,60.4,29.13,NE,45,0.0,2.7,58,0.00,,,0.00,WUHU21623XXSP,2013-07-23 22:14:00,
2013-07-23 17:19:00,76.1,60.2,29.12,NNE,22,0.0,0.0,58,0.00,,,0.00,WUHU21623XXSP,2013-07-23 22:19:00,
2013-07-23 17:24:00,75.9,60.1,29.13,NNE,22,2.5,5.4,58,0.00,,,0.00,WUHU21623XXSP,2013-07-23 22:24:00,
2013-07-23 17:29:00,75.7,59.9,29.13,NNE,22,0.9,5.4,58,0.00,,,0.00,WUHU21623XXSP,2013-07-23 22:29:00,
2013-07-23 17:34:00,75.7,60.4,29.13,North,0,0.0,0.9,59,0.00,,,0.00,WUHU21623XXSP,2013-07-23 22:34:00,
2013-07-23 17:39:00,75.7,60.3,29.13,North,0,0.0,0.0,59,0.00,,,0.00,WUHU21623XXSP,2013-07-23 22:39:00,
2013-07-23 17:45:00,75.7,60.4,29.13,NE,45,0.0,0.0,59,0.00,,,0.00,WUHU21623XXSP,2013-07-23 22:45:00,
2013-07-23 17:50:00,75.6,60.3,29.13,NNE,22,0.0,0.2,59,0.00,,,0.00,WUHU21623XXSP,2013-07-23 22:50:00,
2013-07-23 17:54:00,75.6,60.3,29.13,NNE,22,0.0,0.2,59,0.00,,,0.00,WUHU21623XXSP,2013-07-23 22:54:00,
2013-07-23 18:00:00,75.4,60.1,29.13,NNE,22,0.0,0.0,59,0.00,,,0.00,WUHU21623XXSP,2013-07-23 23:00:00,
2013-07-23 18:05:00,75.4,60.1,29.13,NNE,22,0.0,1.3,59,0.00,,,0.00,WUHU21623XXSP,2013-07-23 23:05:00,
2013-07-23 18:11:00,75.4,60.1,29.13,NNE,22,0.0,1.3,59,0.00,,,0.00,WUHU21623XXSP,2013-07-23 23:11:00,
2013-07-23 18:16:00,75.6,60.1,29.13,NNE,22,0.0,0.0,59,0.00,,,0.00,WUHU21623XXSP,2013-07-23 23:16:00,
2013-07-23 18:21:00,75.9,60.6,29.13,NNE,22,0.0,1.8,59,0.00,,,0.00,WUHU21623XXSP,2013-07-23 23:21:00,
2013-07-23 18:27:00,75.9,60.6,29.13,NNE,22,0.0,1.8,59,0.00,,,0.00,WUHU21623XXSP,2013-07-23 23:27:00,
2013-07-23 18:32:00,76.1,60.7,29.13,NNE,22,0.0,0.4,59,0.00,,,0.00,WUHU21623XXSP,2013-07-23 23:32:00,
2013-07-23 18:37:00,76.3,60.9,29.13,NNE,22,0.0,0.4,59,0.00,,,0.00,WUHU21623XXSP,2013-07-23 23:37:00,
2013-07-23 18:42:00,76.3,60.9,29.13,NNE,22,0.0,0.0,59,0.00,,,0.00,WUHU21623XXSP,2013-07-23 23:42:00,
2013-07-23 18:47:00,76.6,61.2,29.13,NNE,22,0.0,0.7,59,0.00,,,0.00,WUHU21623XXSP,2013-07-23 23:47:00,
2013-07-23 18:52:00,76.6,61.2,29.13,NNE,22,0.0,0.7,59,0.00,,,0.00,WUHU21623XXSP,2013-07-23 23:52:00,
2013-07-23 18:58:00,76.6,61.2,29.13,NNE,22,0.0,0.7,59,0.00,,,0.00,WUHU21623XXSP,2013-07-23 23:58:00,
2013-07-23 19:03:00,76.3,60.9,29.12,NNE,22,0.0,0.7,59,0.00,,,0.00,WUHU21623XXSP,2013-07-24 00:03:00,
2013-07-23 19:08:00,76.1,60.7,29.12,NNE,22,2.9,2.9,59,0.00,,,0.00,WUHU21623XXSP,2013-07-24 00:08:00,
2013-07-23 19:13:00,76.3,60.9,29.12,NNE,22,0.0,2.9,59,0.00,,,0.00,WUHU21623XXSP,2013-07-24 00:13:00,
2013-07-23 19:18:00,76.1,60.7,29.12,NNE,22,0.2,0.2,59,0.00,,,0.00,WUHU21623XXSP,2013-07-24 00:18:00,
2013-07-23 19:23:00,75.9,61.1,29.12,NNE,22,0.0,0.2,60,0.00,,,0.00,WUHU21623XXSP,2013-07-24 00:23:00,
2013-07-23 19:28:00,75.6,60.8,29.12,NNE,22,0.0,0.0,60,0.00,,,0.00,WUHU21623XXSP,2013-07-24 00:28:00,
2013-07-23 19:33:00,75.4,60.6,29.12,NNE,22,0.0,0.0,60,0.00,,,0.00,WUHU21623XXSP,2013-07-24 00:33:00,
2013-07-23 19:38:00,75.0,60.7,29.13,NNW,337,0.0,0.0,61,0.00,,,0.00,WUHU21623XXSP,2013-07-24 00:38:00,
2013-07-23 19:44:00,75.0,60.7,29.12,NNW,337,0.0,0.0,61,0.00,,,0.00,WUHU21623XXSP,2013-07-24 00:44:00,
2013-07-23 19:49:00,75.0,60.7,29.13,NNW,337,0.0,0.0,61,0.00,,,0.00,WUHU21623XXSP,2013-07-24 00:49:00,
2013-07-23 19:54:00,74.7,60.3,29.12,North,0,1.3,1.3,61,0.00,,,0.00,WUHU21623XXSP,2013-07-24 00:54:00,
2013-07-23 19:59:00,74.5,60.6,29.12,North,0,0.0,1.3,62,0.00,,,0.00,WUHU21623XXSP,2013-07-24 00:59:00,
2013-07-23 20:04:00,74.1,60.2,29.13,North,0,0.0,0.0,62,0.00,,,0.00,WUHU21623XXSP,2013-07-24 01:04:00,
2013-07-23 20:09:00,73.9,60.1,29.13,North,0,0.0,0.0,62,0.00,,,0.00,WUHU21623XXSP,2013-07-24 01:09:00,
2013-07-23 20:15:00,73.9,60.5,29.13,North,0,0.0,0.0,63,0.00,,,0.00,WUHU21623XXSP,2013-07-24 01:15:00,
2013-07-23 20:20:00,73.6,60.2,29.13,North,0,0.0,0.0,63,0.00,,,0.00,WUHU21623XXSP,2013-07-24 01:20:00,
2013-07-23 20:25:00,73.2,59.8,29.13,North,0,0.0,0.0,63,0.00,,,0.00,WUHU21623XXSP,2013-07-24 01:25:00,
2013-07-23 20:30:00,73.0,59.6,29.14,NNE,22,0.0,0.0,63,0.00,,,0.00,WUHU21623XXSP,2013-07-24 01:30:00,
2013-07-23 20:36:00,72.7,59.3,29.14,NNE,22,0.0,0.0,63,0.00,,,0.00,WUHU21623XXSP,2013-07-24 01:36:00,
2013-07-23 20:41:00,72.3,59.0,29.14,NNE,22,0.0,1.3,63,0.00,,,0.00,WUHU21623XXSP,2013-07-24 01:41:00,
2013-07-23 20:46:00,72.3,59.4,29.15,NNE,22,0.0,1.3,64,0.00,,,0.00,WUHU21623XXSP,2013-07-24 01:46:00,
2013-07-23 20:51:00,72.0,59.1,29.15,NNE,22,0.0,0.0,64,0.00,,,0.00,WUHU21623XXSP,2013-07-24 01:51:00,
2013-07-23 20:56:00,71.8,58.9,29.15,NNE,22,0.4,0.4,64,0.00,,,0.00,WUHU21623XXSP,2013-07-24 01:56:00,
2013-07-23 21:01:00,71.4,58.6,29.15,NNE,22,0.0,4.5,64,0.00,,,0.00,WUHU21623XXSP,2013-07-24 02:01:00,
2013-07-23 21:06:00,71.2,59.0,29.15,NNE,22,2.5,4.5,65,0.00,,,0.00,WUHU21623XXSP,2013-07-24 02:06:00,
2013-07-23 21:11:00,71.2,58.8,29.16,NNE,22,0.0,2.5,65,0.00,,,0.00,WUHU21623XXSP,2013-07-24 02:11:00,
2013-07-23 21:16:00,70.9,58.9,29.16,NNE,22,1.1,2.9,66,0.00,,,0.00,WUHU21623XXSP,2013-07-24 02:16:00,
2013-07-23 21:22:00,70.7,58.7,29.16,NNE,22,0.0,2.9,66,0.00,,,0.00,WUHU21623XXSP,2013-07-24 02:22:00,
2013-07-23 21:27:00,70.5,58.6,29.16,NNE,22,1.3,1.3,66,0.00,,,0.00,WUHU21623XXSP,2013-07-24 02:27:00,
2013-07-23 21:32:00,70.3,58.8,29.17,NNE,22,0.0,1.3,67,0.00,,,0.00,WUHU21623XXSP,2013-07-24 02:32:00,
2013-07-23 21:37:00,70.3,58.4,29.17,NNE,22,0.0,0.0,66,0.00,,,0.00,WUHU21623XXSP,2013-07-24 02:37:00,
2013-07-23 21:42:00,70.2,58.6,29.17,NNE,22,0.0,0.0,67,0.00,,,0.00,WUHU21623XXSP,2013-07-24 02:42:00,
2013-07-23 21:47:00,70.0,58.5,29.18,NNE,22,0.0,0.0,67,0.00,,,0.00,WUHU21623XXSP,2013-07-24 02:47:00,
2013-07-23 21:52:00,70.0,58.5,29.18,NNE,22,0.0,0.0,67,0.00,,,0.00,WUHU21623XXSP,2013-07-24 02:52:00,
2013-07-23 21:57:00,69.6,58.3,29.18,NNE,22,0.0,0.0,67,0.00,,,0.00,WUHU21623XXSP,2013-07-24 02:57:00,
2013-07-23 22:02:00,69.6,58.1,29.18,NNE,22,0.0,0.0,67,0.00,,,0.00,WUHU21623XXSP,2013-07-24 03:02:00,
2013-07-23 22:08:00,69.6,58.5,29.18,NNE,22,0.0,0.0,68,0.00,,,0.00,WUHU21623XXSP,2013-07-24 03:08:00,
2013-07-23 22:13:00,69.6,58.5,29.18,NNE,22,0.0,0.0,68,0.00,,,0.00,WUHU21623XXSP,2013-07-24 03:13:00,
2013-07-23 22:18:00,69.6,58.5,29.19,NNE,22,0.0,0.0,68,0.00,,,0.00,WUHU21623XXSP,2013-07-24 03:18:00,
2013-07-23 22:23:00,69.4,58.4,29.19,NNE,22,0.0,0.0,68,0.00,,,0.00,WUHU21623XXSP,2013-07-24 03:23:00,
2013-07-23 22:28:00,69.3,58.2,29.19,NNE,22,0.0,0.0,68,0.00,,,0.00,WUHU21623XXSP,2013-07-24 03:28:00,
2013-07-23 22:34:00,69.1,58.5,29.19,NNE,22,0.0,0.0,69,0.00,,,0.00,WUHU21623XXSP,2013-07-24 03:34:00,
2013-07-23 22:39:00,69.1,58.5,29.20,NNE,22,0.0,0.0,69,0.00,,,0.00,WUHU21623XXSP,2013-07-24 03:39:00,
2013-07-23 22:44:00,68.9,58.3,29.19,NNE,22,0.0,0.0,69,0.00,,,0.00,WUHU21623XXSP,2013-07-24 03:44:00,
2013-07-23 22:49:00,68.7,58.1,29.20,NNE,22,0.0,0.0,69,0.00,,,0.00,WUHU21623XXSP,2013-07-24 03:49:00,
2013-07-23 22:54:00,68.7,58.1,29.20,NNE,22,0.0,0.0,69,0.00,,,0.00,WUHU21623XXSP,2013-07-24 03:54:00,
2013-07-23 22:59:00,68.5,58.4,29.20,NNE,22,0.0,0.0,70,0.00,,,0.00,WUHU21623XXSP,2013-07-24 03:59:00,
2013-07-23 23:01:00,68.5,58.0,29.20,NNE,22,0.0,0.0,69,0.00,,,0.00,WUHU21623XXSP,2013-07-24 04:01:00,
2013-07-23 23:57:00,66.6,57.4,29.19,NNE,23,2.0,2.0,72,0.00,,,0.00,WUHU21623XXSP,2013-07-24 04:57:00,